createdAt,value
2022-12-26T00:01:13.907Z,15.30
2022-12-26T00:03:42.027Z,15.43
2022-12-26T00:06:15.941Z,17.75
2022-12-26T00:08:44.459Z,15.75
2022-12-26T00:11:12.838Z,15.70
2022-12-26T00:13:42.021Z,15.75
2022-12-26T00:16:11.948Z,16.73
2022-12-26T00:18:40.260Z,18.45
2022-12-26T00:21:09.537Z,16.98
2022-12-26T00:23:39.330Z,17.80
2022-12-26T00:26:09.283Z,16.95
2022-12-26T00:28:38.309Z,16.48
2022-12-26T00:31:07.084Z,18.05
2022-12-26T00:33:35.320Z,17.98
2022-12-26T00:36:04.936Z,17.63
2022-12-26T00:38:33.116Z,17.63
2022-12-26T00:41:02.637Z,18.55
2022-12-26T00:43:31.169Z,18.83
2022-12-26T00:45:59.231Z,17.55
2022-12-26T00:48:28.626Z,18.38
2022-12-26T00:50:57.271Z,16.85
2022-12-26T00:53:27.285Z,16.30
2022-12-26T00:55:56.763Z,17.80
2022-12-26T00:58:26.560Z,17.67
2022-12-26T01:00:55.372Z,17.17
2022-12-26T01:03:23.715Z,16.65
2022-12-26T01:05:52.671Z,18.05
2022-12-26T01:08:24.522Z,17.92
2022-12-26T01:10:53.191Z,16.98
2022-12-26T01:13:21.040Z,17.40
2022-12-26T01:15:51.308Z,18.40
2022-12-26T01:18:22.776Z,18.60
2022-12-26T01:20:50.817Z,18.10
2022-12-26T01:23:19.245Z,18.38
2022-12-26T01:26:19.310Z,19.33
2022-12-26T01:28:36.621Z,18.58
2022-12-26T01:31:07.111Z,19.02
2022-12-26T01:33:35.102Z,19.77
2022-12-26T01:36:03.174Z,19.45
2022-12-26T01:38:31.182Z,18.77
2022-12-26T01:41:16.783Z,17.95
2022-12-26T01:43:55.742Z,18.42
2022-12-26T01:46:29.957Z,18.42
2022-12-26T01:49:00.674Z,18.67
2022-12-26T01:51:32.594Z,18.20
2022-12-26T01:54:38.310Z,19.25
2022-12-26T01:56:53.625Z,17.88
2022-12-26T01:59:26.081Z,16.83
2022-12-26T02:01:56.824Z,19.00
2022-12-26T02:04:59.619Z,19.80
2022-12-26T02:07:27.882Z,17.75
2022-12-26T02:09:55.958Z,18.88
2022-12-26T02:12:35.986Z,18.00
2022-12-26T02:15:09.654Z,17.42
2022-12-26T02:17:39.878Z,17.13
2022-12-26T02:20:18.459Z,17.95
2022-12-26T02:23:21.618Z,16.60
2022-12-26T02:26:26.505Z,15.88
2022-12-26T02:29:27.947Z,16.27
2022-12-26T02:32:06.825Z,14.25
2022-12-26T02:34:42.339Z,16.23
2022-12-26T02:37:24.099Z,15.07
2022-12-26T02:40:19.345Z,15.00
2022-12-26T02:42:59.184Z,15.98
2022-12-26T02:45:52.988Z,15.35
2022-12-26T02:48:32.833Z,14.48
2022-12-26T02:51:40.648Z,14.68
2022-12-26T02:54:48.793Z,14.00
2022-12-26T02:57:38.432Z,14.30
2022-12-26T03:00:27.405Z,14.48
2022-12-26T03:03:18.955Z,14.45
2022-12-26T03:06:10.514Z,14.38
2022-12-26T03:09:05.180Z,14.82
2022-12-26T03:11:55.714Z,14.80
2022-12-26T03:14:27.827Z,15.77
2022-12-26T03:17:19.049Z,15.93
2022-12-26T03:20:02.105Z,14.98
2022-12-26T03:22:41.996Z,15.98
2022-12-26T03:25:30.857Z,18.42
2022-12-26T03:27:59.459Z,18.05
2022-12-26T03:31:00.082Z,18.90
2022-12-26T03:33:48.513Z,18.80
2022-12-26T03:36:24.883Z,19.55
2022-12-26T03:39:07.649Z,20.50
2022-12-26T03:42:03.722Z,20.30
2022-12-26T03:44:56.112Z,21.52
2022-12-26T03:47:54.286Z,20.65
2022-12-26T03:50:57.088Z,23.27
2022-12-26T03:53:47.394Z,22.02
2022-12-26T03:56:44.151Z,21.35
2022-12-26T03:59:38.742Z,21.85
2022-12-26T04:02:28.136Z,22.85
2022-12-26T04:05:17.237Z,22.67
2022-12-26T04:08:16.504Z,22.13
2022-12-26T04:11:08.323Z,20.92
2022-12-26T04:14:05.973Z,22.90
2022-12-26T04:16:55.865Z,23.52
2022-12-26T04:19:42.266Z,21.83
2022-12-26T04:22:35.166Z,22.60
2022-12-26T04:25:50.251Z,22.35
2022-12-26T04:28:34.355Z,22.50
2022-12-26T04:31:28.031Z,21.23
2022-12-26T04:34:20.149Z,22.42
2022-12-26T04:37:10.078Z,20.70
2022-12-26T04:39:58.484Z,22.00
2022-12-26T04:42:45.858Z,21.65
2022-12-26T04:45:15.277Z,21.10
2022-12-26T04:48:04.842Z,21.63
2022-12-26T04:50:31.767Z,21.23
2022-12-26T04:52:59.816Z,21.40
2022-12-26T04:55:30.414Z,20.80
2022-12-26T04:57:59.105Z,23.08
2022-12-26T05:00:29.234Z,21.80
2022-12-26T05:03:19.532Z,22.58
2022-12-26T05:06:09.235Z,21.70
2022-12-26T05:08:57.364Z,23.50
2022-12-26T05:11:25.709Z,23.10
2022-12-26T05:13:54.937Z,22.77
2022-12-26T05:16:52.992Z,23.40
2022-12-26T05:19:39.906Z,23.65
2022-12-26T05:22:25.408Z,21.95
2022-12-26T05:25:11.342Z,22.40
2022-12-26T05:28:00.107Z,22.05
2022-12-26T05:30:28.123Z,21.88
2022-12-26T05:33:13.504Z,21.23
2022-12-26T05:35:43.091Z,21.75
2022-12-26T05:38:11.782Z,21.48
2022-12-26T05:40:39.904Z,21.88
2022-12-26T05:43:07.736Z,21.20
2022-12-26T05:45:35.912Z,21.27
2022-12-26T05:48:04.358Z,21.92
2022-12-26T05:50:32.457Z,21.58
2022-12-26T05:53:01.715Z,21.70
2022-12-26T05:55:29.642Z,20.27
2022-12-26T05:57:57.894Z,21.95
2022-12-26T06:00:25.954Z,21.17
2022-12-26T06:02:54.087Z,22.90
2022-12-26T06:05:24.610Z,21.55
2022-12-26T06:07:53.656Z,21.50
2022-12-26T06:10:23.026Z,22.67
2022-12-26T06:12:51.066Z,23.02
2022-12-26T06:15:19.303Z,22.88
2022-12-26T06:17:47.184Z,23.27
2022-12-26T06:20:15.259Z,23.02
2022-12-26T06:22:43.074Z,23.02
2022-12-26T06:25:11.160Z,23.60
2022-12-26T06:27:40.441Z,23.10
2022-12-26T06:30:09.108Z,23.23
2022-12-26T06:32:36.967Z,21.52
2022-12-26T06:35:05.316Z,22.00
2022-12-26T06:37:34.425Z,21.40
2022-12-26T06:40:02.301Z,20.77
2022-12-26T06:42:30.553Z,19.52
2022-12-26T06:44:59.850Z,19.27
2022-12-26T06:47:27.917Z,19.83
2022-12-26T06:49:55.747Z,18.67
2022-12-26T06:52:23.645Z,18.52
2022-12-26T06:54:51.511Z,19.58
2022-12-26T06:57:19.393Z,18.58
2022-12-26T06:59:47.496Z,18.75
2022-12-26T07:02:16.798Z,16.77
2022-12-26T07:04:44.837Z,16.67
2022-12-26T07:07:12.837Z,16.02
2022-12-26T07:09:40.800Z,16.73
2022-12-26T07:12:08.704Z,17.45
2022-12-26T07:14:37.530Z,15.60
2022-12-26T07:17:05.499Z,15.70
2022-12-26T07:19:34.925Z,14.95
2022-12-26T07:22:02.780Z,15.80
2022-12-26T07:24:30.864Z,15.88
2022-12-26T07:26:58.657Z,15.68
2022-12-26T07:29:26.784Z,14.70
2022-12-26T07:31:54.689Z,14.57
2022-12-26T07:34:27.864Z,13.52
2022-12-26T07:37:00.385Z,11.20
2022-12-26T07:39:28.286Z,12.23
2022-12-26T07:41:59.215Z,11.20
2022-12-26T07:44:28.161Z,11.18
2022-12-26T07:46:56.759Z,10.35
2022-12-26T07:49:24.795Z,10.27
2022-12-26T07:51:53.289Z,10.63
2022-12-26T07:54:22.599Z,11.10
2022-12-26T07:56:50.660Z,10.82
2022-12-26T07:59:19.167Z,11.30
2022-12-26T08:01:47.295Z,10.38
2022-12-26T08:04:15.548Z,10.07
2022-12-26T08:06:43.522Z,10.98
2022-12-26T08:09:15.905Z,9.88
2022-12-26T08:11:45.606Z,9.98
2022-12-26T08:14:16.816Z,12.27
2022-12-26T08:16:51.353Z,9.15
2022-12-26T08:19:21.267Z,9.85
2022-12-26T08:21:49.108Z,9.32
2022-12-26T08:24:16.985Z,9.73
2022-12-26T08:26:46.155Z,9.73
2022-12-26T08:29:14.087Z,8.85
2022-12-26T08:31:42.152Z,8.65
2022-12-26T08:34:10.488Z,7.13
2022-12-26T08:36:38.452Z,7.32
2022-12-26T08:39:06.637Z,7.40
2022-12-26T08:41:34.651Z,7.55
2022-12-26T08:46:52.151Z,7.05
2022-12-26T08:49:20.199Z,7.28
2022-12-26T08:51:49.540Z,6.65
2022-12-26T08:54:17.502Z,7.00
2022-12-26T08:56:45.521Z,8.02
2022-12-26T08:59:14.825Z,7.95
2022-12-26T09:01:43.094Z,7.25
2022-12-26T09:04:11.236Z,6.95
2022-12-26T09:06:40.458Z,7.95
2022-12-26T09:09:12.252Z,7.38
2022-12-26T09:11:40.963Z,7.90
2022-12-26T09:14:10.113Z,7.95
2022-12-26T09:16:49.192Z,7.90
2022-12-26T09:19:18.684Z,7.80
2022-12-26T09:21:47.431Z,7.47
2022-12-26T09:24:19.583Z,8.18
2022-12-26T09:26:47.566Z,7.18
2022-12-26T09:29:15.613Z,6.72
2022-12-26T09:31:44.966Z,7.07
2022-12-26T09:34:13.264Z,6.97
2022-12-26T09:36:41.382Z,6.97
2022-12-26T09:39:09.501Z,6.88
2022-12-26T09:41:59.875Z,6.07
2022-12-26T09:44:36.589Z,5.10
2022-12-26T09:47:17.040Z,3.72
2022-12-26T09:49:55.231Z,4.28
2022-12-26T09:52:26.001Z,3.25
2022-12-26T09:54:57.448Z,3.30
2022-12-26T09:57:35.139Z,3.83
2022-12-26T10:00:06.178Z,4.15
2022-12-26T10:02:41.862Z,3.08
2022-12-26T10:05:14.865Z,3.50
2022-12-26T10:07:48.615Z,2.50
2022-12-26T10:10:22.896Z,3.92
2022-12-26T10:12:59.408Z,2.47
2022-12-26T10:15:37.222Z,2.78
2022-12-26T10:18:19.737Z,3.17
2022-12-26T10:21:03.395Z,2.50
2022-12-26T10:23:33.715Z,2.42
2022-12-26T10:26:12.822Z,2.80
2022-12-26T10:28:46.075Z,2.70
2022-12-26T10:31:20.580Z,1.95
2022-12-26T10:33:55.415Z,2.13
2022-12-26T10:36:34.769Z,2.15
2022-12-26T10:39:05.676Z,2.50
2022-12-26T10:41:38.007Z,2.35
2022-12-26T10:44:06.688Z,2.97
2022-12-26T10:46:58.231Z,1.92
2022-12-26T10:49:28.720Z,1.73
2022-12-26T10:52:00.176Z,2.53
2022-12-26T10:54:29.478Z,2.72
2022-12-26T10:56:59.514Z,1.90
2022-12-26T10:59:38.222Z,1.52
2022-12-26T11:02:16.011Z,1.70
2022-12-26T11:05:48.423Z,2.17
2022-12-26T11:07:52.795Z,1.75
2022-12-26T11:10:23.087Z,1.55
2022-12-26T11:12:53.455Z,1.52
2022-12-26T11:15:29.097Z,1.92
2022-12-26T11:18:09.677Z,1.75
2022-12-26T11:20:39.219Z,2.28
2022-12-26T11:23:34.187Z,2.40
2022-12-26T11:26:02.886Z,1.27
2022-12-26T11:28:33.884Z,1.45
2022-12-26T11:31:05.326Z,1.63
2022-12-26T11:33:36.978Z,1.58
2022-12-26T11:36:12.820Z,1.38
2022-12-26T11:38:54.137Z,2.42
2022-12-26T11:41:39.704Z,1.65
2022-12-26T11:44:22.907Z,1.90
2022-12-26T11:46:55.309Z,1.92
2022-12-26T11:49:30.430Z,2.03
2022-12-26T11:52:01.918Z,1.98
2022-12-26T11:54:34.381Z,2.70
2022-12-26T11:57:10.398Z,2.08
2022-12-26T11:59:38.832Z,2.53
2022-12-26T12:02:19.626Z,2.45
2022-12-26T12:04:49.007Z,1.98
2022-12-26T12:07:40.890Z,2.22
2022-12-26T12:10:42.999Z,2.22
2022-12-26T12:13:22.648Z,2.58
2022-12-26T12:15:57.760Z,1.98
2022-12-26T12:18:39.287Z,2.13
2022-12-26T12:21:22.051Z,2.42
2022-12-26T12:24:11.460Z,2.08
2022-12-26T12:26:54.901Z,2.28
2022-12-26T12:29:40.304Z,2.47
2022-12-26T12:32:18.217Z,2.90
2022-12-26T12:35:13.195Z,2.53
2022-12-26T12:37:56.955Z,2.50
2022-12-26T12:43:09.812Z,2.35
2022-12-26T12:45:47.821Z,2.45
2022-12-26T12:48:27.453Z,2.10
2022-12-26T12:51:03.976Z,3.00
2022-12-26T12:53:48.719Z,3.58
2022-12-26T12:56:29.181Z,3.13
2022-12-26T12:59:07.067Z,2.47
2022-12-26T13:01:43.912Z,2.65
2022-12-26T13:04:18.176Z,2.20
2022-12-26T13:06:50.997Z,2.75
2022-12-26T13:09:23.114Z,2.47
2022-12-26T13:11:57.336Z,2.40
2022-12-26T13:14:30.036Z,1.80
2022-12-26T13:17:04.757Z,2.42
2022-12-26T13:19:42.019Z,2.50
2022-12-26T13:22:16.670Z,1.88
2022-12-26T13:24:46.531Z,2.60
2022-12-26T13:27:20.610Z,3.03
2022-12-26T13:29:50.021Z,2.58
2022-12-26T13:32:22.618Z,2.10
2022-12-26T13:34:52.745Z,2.63
2022-12-26T13:37:56.918Z,2.30
2022-12-26T13:40:28.953Z,2.17
2022-12-26T13:43:20.373Z,2.55
2022-12-26T13:45:56.890Z,2.58
2022-12-26T13:49:08.119Z,2.45
2022-12-26T13:51:53.988Z,3.10
2022-12-26T13:54:24.108Z,2.22
2022-12-26T13:57:30.321Z,3.05
2022-12-26T14:00:24.064Z,2.58
2022-12-26T14:03:36.748Z,2.08
2022-12-26T14:06:28.640Z,2.78
2022-12-26T14:09:12.480Z,2.72
2022-12-26T14:14:26.240Z,2.38
2022-12-26T14:17:04.181Z,2.60
2022-12-26T14:19:44.600Z,2.17
2022-12-26T14:22:19.724Z,3.15
2022-12-26T14:25:01.584Z,2.70
2022-12-26T14:27:38.863Z,2.10
2022-12-26T14:30:20.798Z,2.42
2022-12-26T14:33:25.809Z,2.10
2022-12-26T14:36:09.042Z,2.75
2022-12-26T14:38:46.911Z,2.10
2022-12-26T14:41:30.868Z,2.30
2022-12-26T14:44:10.061Z,3.50
2022-12-26T14:47:02.871Z,2.88
2022-12-26T14:49:43.465Z,2.53
2022-12-26T14:52:41.300Z,2.50
2022-12-26T14:55:43.154Z,2.42
2022-12-26T14:58:27.864Z,2.33
2022-12-26T15:00:57.362Z,2.00
2022-12-26T15:03:52.923Z,2.33
2022-12-26T15:06:59.326Z,2.53
2022-12-26T15:10:03.552Z,2.42
2022-12-26T15:13:19.802Z,2.60
2022-12-26T15:16:03.294Z,3.45
2022-12-26T15:19:07.475Z,2.53
2022-12-26T15:22:04.873Z,3.15
2022-12-26T15:25:20.276Z,2.10
2022-12-26T15:28:20.271Z,2.50
2022-12-26T15:31:08.638Z,2.42
2022-12-26T15:33:40.498Z,2.38
2022-12-26T15:36:23.568Z,2.63
2022-12-26T15:38:59.769Z,2.42
2022-12-26T15:41:36.511Z,1.75
2022-12-26T15:44:16.121Z,3.03
2022-12-26T15:46:50.820Z,2.42
2022-12-26T15:49:36.667Z,2.42
2022-12-26T15:52:14.158Z,2.55
2022-12-26T15:55:10.748Z,2.42
2022-12-26T15:57:46.968Z,2.67
2022-12-26T16:00:22.072Z,2.40
2022-12-26T16:03:02.544Z,1.92
2022-12-26T16:05:40.698Z,2.83
2022-12-26T16:08:41.311Z,2.65
2022-12-26T16:11:23.181Z,2.78
2022-12-26T16:13:57.469Z,2.60
2022-12-26T16:16:28.237Z,2.65
2022-12-26T16:18:56.734Z,2.60
2022-12-26T16:21:45.757Z,2.05
2022-12-26T16:24:17.309Z,2.40
2022-12-26T16:26:48.246Z,2.28
2022-12-26T16:29:19.769Z,2.47
2022-12-26T16:31:48.045Z,2.22
2022-12-26T16:34:19.876Z,4.38
2022-12-26T16:36:50.286Z,3.13
2022-12-26T16:39:24.308Z,3.08
2022-12-26T16:42:03.764Z,2.13
2022-12-26T16:44:36.210Z,2.65
2022-12-26T16:47:07.754Z,3.08
2022-12-26T16:49:37.108Z,2.17
2022-12-26T16:52:07.774Z,2.35
2022-12-26T16:54:42.346Z,2.88
2022-12-26T16:57:19.048Z,2.65
2022-12-26T16:59:52.860Z,2.30
2022-12-26T17:02:25.392Z,1.77
2022-12-26T17:05:01.459Z,2.40
2022-12-26T17:07:29.997Z,1.95
2022-12-26T17:10:00.506Z,2.42
2022-12-26T17:12:33.310Z,2.15
2022-12-26T17:15:03.118Z,2.70
2022-12-26T17:17:34.998Z,2.00
2022-12-26T17:20:33.275Z,2.10
2022-12-26T17:23:01.360Z,2.53
2022-12-26T17:25:33.676Z,2.03
2022-12-26T17:28:24.994Z,2.70
2022-12-26T17:30:54.347Z,2.65
2022-12-26T17:33:24.084Z,2.38
2022-12-26T17:38:45.443Z,7.80
2022-12-26T17:41:16.937Z,2.95
2022-12-26T17:43:47.577Z,2.75
2022-12-26T17:46:18.184Z,3.42
2022-12-26T17:48:46.546Z,3.22
2022-12-26T17:51:17.748Z,3.20
2022-12-26T17:53:49.804Z,3.40
2022-12-26T17:56:21.499Z,3.80
2022-12-26T17:58:51.445Z,3.63
2022-12-26T18:01:21.711Z,4.20
2022-12-26T18:03:51.961Z,3.58
2022-12-26T18:06:21.761Z,3.03
2022-12-26T18:08:49.722Z,2.85
2022-12-26T18:11:17.614Z,2.45
2022-12-26T18:13:45.579Z,2.60
2022-12-26T18:16:17.691Z,2.47
2022-12-26T18:18:47.522Z,3.22
2022-12-26T18:21:16.708Z,2.67
2022-12-26T18:23:45.296Z,3.55
2022-12-26T18:26:20.034Z,2.50
2022-12-26T18:28:49.943Z,2.72
2022-12-26T18:31:19.344Z,2.42
2022-12-26T18:33:47.438Z,2.35
2022-12-26T18:36:16.613Z,2.55
2022-12-26T18:38:45.519Z,3.67
2022-12-26T18:41:16.242Z,2.83
2022-12-26T18:43:44.325Z,2.38
2022-12-26T18:46:17.088Z,2.33
2022-12-26T18:48:47.148Z,2.25
2022-12-26T18:51:15.323Z,2.80
2022-12-26T18:53:43.482Z,2.70
2022-12-26T18:56:14.599Z,2.63
2022-12-26T18:58:42.741Z,2.22
2022-12-26T19:01:13.909Z,3.75
2022-12-26T19:03:43.018Z,2.45
2022-12-26T19:06:14.461Z,2.30
2022-12-26T19:08:42.935Z,2.15
2022-12-26T19:11:13.765Z,2.00
2022-12-26T19:13:42.889Z,2.55
2022-12-26T19:16:10.895Z,2.42
2022-12-26T19:18:38.813Z,2.35
2022-12-26T19:21:11.313Z,2.53
2022-12-26T19:23:41.229Z,2.40
2022-12-26T19:26:10.683Z,2.60
2022-12-26T19:28:39.201Z,2.75
2022-12-26T19:31:08.664Z,2.20
2022-12-26T19:33:36.924Z,3.17
2022-12-26T19:36:06.483Z,2.25
2022-12-26T19:38:34.815Z,2.55
2022-12-26T19:41:06.719Z,3.15
2022-12-26T19:43:35.189Z,1.80
2022-12-26T19:46:05.253Z,2.45
2022-12-26T19:48:34.889Z,2.25
2022-12-26T19:51:03.300Z,1.95
2022-12-26T19:53:31.240Z,3.10
2022-12-26T19:55:59.925Z,2.47
2022-12-26T19:58:32.165Z,2.58
2022-12-26T20:01:06.902Z,2.40
2022-12-26T20:03:34.911Z,2.60
2022-12-26T20:06:11.623Z,2.63
2022-12-26T20:08:41.649Z,2.35
2022-12-26T20:11:13.020Z,3.15
2022-12-26T20:13:44.202Z,2.15
2022-12-26T20:16:45.955Z,2.70
2022-12-26T20:19:03.376Z,2.75
2022-12-26T20:21:31.553Z,2.42
2022-12-26T20:24:03.033Z,3.25
2022-12-26T20:26:31.343Z,2.58
2022-12-26T20:29:02.431Z,2.58
2022-12-26T20:31:32.873Z,2.17
2022-12-26T20:34:04.227Z,2.67
2022-12-26T20:36:37.848Z,2.10
2022-12-26T20:39:07.956Z,2.28
2022-12-26T20:41:36.274Z,2.92
2022-12-26T20:44:05.967Z,2.38
2022-12-26T20:46:35.374Z,2.47
2022-12-26T20:49:05.136Z,2.58
2022-12-26T20:51:37.668Z,3.00
2022-12-26T20:54:32.844Z,2.22
2022-12-26T20:57:03.019Z,3.47
2022-12-26T20:59:32.335Z,2.63
2022-12-26T21:02:00.386Z,2.40
2022-12-26T21:04:28.718Z,1.83
2022-12-26T21:06:56.691Z,3.25
2022-12-26T21:09:24.842Z,2.55
2022-12-26T21:11:52.686Z,2.25
2022-12-26T21:14:23.421Z,2.67
2022-12-26T21:16:54.455Z,2.65
2022-12-26T21:19:23.277Z,1.98
2022-12-26T21:21:56.229Z,1.92
2022-12-26T21:24:26.609Z,2.40
2022-12-26T21:26:55.458Z,2.33
2022-12-26T21:29:25.333Z,2.55
2022-12-26T21:31:55.482Z,2.33
2022-12-26T21:34:25.853Z,1.77
2022-12-26T21:37:08.058Z,2.05
2022-12-26T21:39:38.090Z,1.98
2022-12-26T21:42:07.643Z,2.45
2022-12-26T21:44:37.489Z,2.53
2022-12-26T21:47:07.966Z,2.10
2022-12-26T21:49:36.408Z,2.28
2022-12-26T21:52:05.416Z,2.05
2022-12-26T21:54:51.683Z,2.08
2022-12-26T21:57:20.449Z,2.13
2022-12-26T21:59:57.389Z,2.17
2022-12-26T22:02:46.911Z,2.60
2022-12-26T22:05:15.705Z,1.85
2022-12-26T22:07:43.779Z,2.30
2022-12-26T22:10:33.454Z,1.95
2022-12-26T22:13:01.536Z,1.83
2022-12-26T22:15:47.235Z,1.40
2022-12-26T22:18:17.278Z,1.80
2022-12-26T22:20:46.244Z,1.92
2022-12-26T22:23:14.918Z,1.85
2022-12-26T22:25:43.107Z,1.70
2022-12-26T22:28:11.333Z,1.67
2022-12-26T22:30:39.550Z,1.77
2022-12-26T22:33:07.418Z,1.90
2022-12-26T22:35:37.382Z,1.33
2022-12-26T22:38:05.408Z,1.60
2022-12-26T22:40:33.510Z,1.73
2022-12-26T22:43:01.595Z,1.83
2022-12-26T22:45:30.021Z,1.83
2022-12-26T22:47:57.949Z,2.10
2022-12-26T22:50:25.924Z,2.10
2022-12-26T22:52:55.354Z,2.38
2022-12-26T22:55:23.545Z,2.85
2022-12-26T22:57:52.889Z,2.30
2022-12-26T23:00:21.634Z,2.00
2022-12-26T23:02:50.017Z,2.13
2022-12-26T23:05:19.227Z,2.00
2022-12-26T23:07:47.691Z,1.88
2022-12-26T23:10:24.103Z,1.52
2022-12-26T23:12:52.938Z,1.95
2022-12-26T23:15:23.243Z,1.70
2022-12-26T23:18:15.968Z,2.20
2022-12-26T23:21:01.828Z,1.92
2022-12-26T23:23:30.539Z,1.85
2022-12-26T23:26:02.099Z,1.85
2022-12-26T23:28:48.112Z,2.08
2022-12-26T23:31:16.555Z,2.50
2022-12-26T23:33:44.670Z,1.77
2022-12-26T23:36:12.583Z,1.88
2022-12-26T23:38:40.568Z,1.92
2022-12-26T23:41:09.723Z,1.50
2022-12-26T23:43:37.698Z,1.05
2022-12-26T23:46:09.831Z,2.55
2022-12-26T23:48:38.136Z,1.98
2022-12-26T23:51:08.607Z,1.67
2022-12-26T23:53:36.978Z,2.10
2022-12-26T23:56:09.918Z,1.90
2022-12-26T23:58:39.846Z,1.63
